METAR AND TAF INFORMATION
METAR FOR EGGP
ADDS - METARS form results

(0430 UTC 26 February 2021)
Data provider http://aviationweather.gov/metar/data/
 
METAR text: EGGP 260420Z AUTO VRB03KT 9999 NCD 03/02 Q1034
Conditions at: EGGP (LIVERPOOL AIRPOR, GB) observed 0420 UTC 26 February 2021
Temperature: 3.0°C (37°F)
Dewpoint: 2.0°C (36°F) [RH = 93%]
Pressure (altimeter): 30.53 inches Hg (1034.0 mb)
Winds: variable direction winds at 3 MPH (3 knots; 1.5 m/s)
Visibility: 6 or more miles (10+ km)
Ceiling: at least 12,000 feet AGL
Clouds: sky clear below 12,000 feet AGL
Weather: no significant weather observed at this time

METAR text: EGGP 260350Z AUTO 21005KT 9999 NCD 03/02 Q1034
Conditions at: EGGP (LIVERPOOL AIRPOR, GB) observed 0350 UTC 26 February 2021
Temperature: 3.0°C (37°F)
Dewpoint: 2.0°C (36°F) [RH = 93%]
Pressure (altimeter): 30.53 inches Hg (1034.0 mb)
Winds: from the SSW (210 degrees) at 6 MPH (5 knots; 2.6 m/s)
Visibility: 6 or more miles (10+ km)
Ceiling: at least 12,000 feet AGL
Clouds: sky clear below 12,000 feet AGL
Weather: no significant weather observed at this time

Forecast for: EGGP (LIVERPOOL AIRPOR, GB)
Text: TAF EGGP 252259Z 2600/2624 20004KT 9999 FEW030
Forecast period: 0000 UTC 26 February 2021 to 0000 UTC 27 February 2021
Forecast type: FROM: standard forecast or significant change
Winds: from the SSW (200 degrees) at 5 MPH (4 knots; 2.1 m/s)
Visibility: 6 or more miles (10+ km)
Ceiling: at least 12,000 feet AGL
Clouds: few clouds at 3000 feet AGL
Weather: no significant weather forecast for this period
Text: PROB30 2603/2610 7000
Forecast period: 0300 to 1000 UTC 26 February 2021
Forecast type: PROBABLE: 30 percent likelihood of the following during this time
Visibility: 4 miles (7 km)
Ceiling: unknown
Clouds: missing
Weather: no significant weather forecast for this period

 AIRPORT MAP

 RUNWAY INFORMATION
Runway 09 Runway length 7500 ft Runway width 151 ft
Runway elevation 59 ft Runway displaced threshold 200 ft Runway heading 86
Runway 27 Runway length 7500 ft Runway width 151 ft
Runway elevation 77 ft Runway displaced threshold 0 ft Runway heading 266

 AIRPORT FREQUENCIES
Type APP Name APP Frequency 119.85 MHZ
Type ATIS Name ATIS Frequency 124.325 MHZ
Type GND Name GND Frequency 121.95 MHZ
Type TWR Name TWR Frequency 126.35 MHZ

 AIRPORT NEAR NAVIGATION AIDS

-